createdAt,value
2024-03-30T00:00:07.365Z,996.09
2024-03-30T00:01:07.378Z,996.10
2024-03-30T00:02:07.389Z,996.14
2024-03-30T00:03:07.431Z,996.10
2024-03-30T00:04:07.430Z,996.12
2024-03-30T00:05:07.456Z,996.06
2024-03-30T00:06:07.456Z,996.08
2024-03-30T00:07:07.476Z,996.07
2024-03-30T00:08:07.492Z,996.04
2024-03-30T00:09:07.524Z,996.05
2024-03-30T00:10:07.534Z,996.05
2024-03-30T00:11:07.541Z,996.02
2024-03-30T00:12:07.556Z,996.08
2024-03-30T00:13:07.573Z,996.08
2024-03-30T00:14:07.592Z,996.07
2024-03-30T00:15:07.608Z,996.09
2024-03-30T00:16:07.628Z,996.07
2024-03-30T00:17:07.656Z,996.02
2024-03-30T00:18:07.652Z,996.06
2024-03-30T00:19:07.666Z,996.09
2024-03-30T00:20:07.693Z,996.09
2024-03-30T00:21:07.699Z,996.07
2024-03-30T00:22:07.724Z,996.08
2024-03-30T00:23:07.726Z,996.11
2024-03-30T00:24:07.747Z,996.09
2024-03-30T00:25:07.763Z,996.13
2024-03-30T00:26:07.778Z,996.11
2024-03-30T00:27:07.792Z,996.13
2024-03-30T00:28:07.810Z,996.15
2024-03-30T00:29:07.824Z,996.12
2024-03-30T00:30:07.840Z,996.12
2024-03-30T00:31:07.861Z,996.12
2024-03-30T00:32:07.880Z,996.13
2024-03-30T00:33:07.894Z,996.13
2024-03-30T00:34:07.902Z,996.12
2024-03-30T00:35:07.918Z,996.12
2024-03-30T00:36:07.939Z,996.12
2024-03-30T00:37:07.948Z,996.13
2024-03-30T00:38:07.963Z,996.13
2024-03-30T00:39:07.982Z,996.13
2024-03-30T00:40:08.010Z,996.12
2024-03-30T00:41:08.020Z,996.05
2024-03-30T00:42:08.046Z,996.07
2024-03-30T00:43:08.051Z,996.00
2024-03-30T00:44:08.072Z,996.02
2024-03-30T00:45:08.071Z,995.98
2024-03-30T00:46:08.089Z,996.03
2024-03-30T00:47:08.133Z,995.99
2024-03-30T00:48:08.122Z,995.99
2024-03-30T00:49:08.137Z,995.99
2024-03-30T00:50:08.156Z,995.94
2024-03-30T00:51:08.167Z,995.95
2024-03-30T00:52:08.183Z,995.89
2024-03-30T00:53:08.198Z,995.90
2024-03-30T00:54:08.219Z,995.87
2024-03-30T00:55:08.231Z,995.89
2024-03-30T00:56:08.247Z,995.88
2024-03-30T00:57:08.260Z,995.86
2024-03-30T00:58:08.283Z,995.83
2024-03-30T00:59:08.293Z,995.85
2024-03-30T01:00:08.305Z,995.79
2024-03-30T01:01:08.325Z,995.79
2024-03-30T01:02:08.336Z,995.73
2024-03-30T01:03:08.363Z,995.82
2024-03-30T01:04:08.374Z,995.86
2024-03-30T01:05:08.384Z,995.83
2024-03-30T01:06:08.410Z,995.83
2024-03-30T01:07:08.417Z,995.83
2024-03-30T01:08:08.431Z,995.80
2024-03-30T01:09:08.447Z,995.80
2024-03-30T01:10:08.464Z,995.80
2024-03-30T01:11:08.502Z,995.77
2024-03-30T01:12:08.494Z,995.75
2024-03-30T01:13:08.511Z,995.73
2024-03-30T01:14:08.523Z,995.73
2024-03-30T01:15:08.540Z,995.72
2024-03-30T01:16:08.550Z,995.67
2024-03-30T01:17:08.568Z,995.66
2024-03-30T01:18:08.585Z,995.61
2024-03-30T01:19:08.601Z,995.62
2024-03-30T01:20:08.616Z,995.65
2024-03-30T01:21:16.563Z,995.64
2024-03-30T01:22:08.654Z,995.63
2024-03-30T01:23:08.666Z,995.64
2024-03-30T01:24:08.685Z,995.64
2024-03-30T01:25:08.711Z,995.62
2024-03-30T01:26:08.716Z,995.63
2024-03-30T01:27:08.720Z,995.53
2024-03-30T01:28:08.735Z,995.55
2024-03-30T01:29:08.758Z,995.51
2024-03-30T01:30:08.767Z,995.52
2024-03-30T01:31:08.781Z,995.55
2024-03-30T01:32:08.855Z,995.56
2024-03-30T01:33:08.811Z,995.58
2024-03-30T01:34:08.836Z,995.55
2024-03-30T01:35:08.844Z,995.54
2024-03-30T01:36:08.855Z,995.53
2024-03-30T01:37:08.880Z,995.59
2024-03-30T01:38:08.894Z,995.54
2024-03-30T01:39:08.904Z,995.59
2024-03-30T01:40:08.925Z,995.59
2024-03-30T01:41:08.940Z,995.62
2024-03-30T01:42:08.945Z,995.55
2024-03-30T01:43:08.964Z,995.54
2024-03-30T01:44:08.974Z,995.61
2024-03-30T01:45:08.988Z,995.57
2024-03-30T01:46:09.019Z,995.55
2024-03-30T01:47:09.017Z,995.56
2024-03-30T01:48:09.046Z,995.56
2024-03-30T01:49:09.048Z,995.59
2024-03-30T01:50:09.065Z,995.56
2024-03-30T01:51:09.081Z,995.57
2024-03-30T01:52:09.097Z,995.60
2024-03-30T01:53:09.109Z,995.59
2024-03-30T01:54:09.119Z,995.68
2024-03-30T01:55:09.148Z,995.72
2024-03-30T01:56:09.170Z,995.68
2024-03-30T01:57:09.169Z,995.72
2024-03-30T01:58:09.182Z,995.74
2024-03-30T01:59:09.199Z,995.72
2024-03-30T02:00:09.222Z,995.73
2024-03-30T02:01:09.231Z,995.73
2024-03-30T02:02:09.241Z,995.74
2024-03-30T02:03:09.263Z,995.74
2024-03-30T02:04:09.275Z,995.76
2024-03-30T02:05:09.307Z,995.76
2024-03-30T02:06:09.308Z,995.78
2024-03-30T02:07:09.318Z,995.78
2024-03-30T02:08:09.338Z,995.78
2024-03-30T02:09:09.345Z,995.74
2024-03-30T02:10:09.359Z,995.75
2024-03-30T02:11:09.383Z,995.73
2024-03-30T02:12:09.392Z,995.66
2024-03-30T02:13:09.404Z,995.69
2024-03-30T02:14:09.417Z,995.67
2024-03-30T02:15:09.440Z,995.66
2024-03-30T02:16:09.450Z,995.65
2024-03-30T02:17:09.481Z,995.66
2024-03-30T02:18:09.475Z,995.66
2024-03-30T02:19:09.495Z,995.67
2024-03-30T02:20:09.512Z,995.66
2024-03-30T02:21:09.530Z,995.65
2024-03-30T02:22:09.536Z,995.60
2024-03-30T02:23:09.556Z,995.58
2024-03-30T02:24:09.574Z,995.54
2024-03-30T02:25:09.579Z,995.55
2024-03-30T02:26:09.592Z,995.53
2024-03-30T02:27:09.605Z,995.49
2024-03-30T02:28:09.623Z,995.49
2024-03-30T02:29:09.637Z,995.49
2024-03-30T02:30:09.651Z,995.47
2024-03-30T02:31:09.668Z,995.43
2024-03-30T02:32:09.681Z,995.49
2024-03-30T02:33:09.702Z,995.47
2024-03-30T02:34:09.714Z,995.44
2024-03-30T02:35:09.724Z,995.44
2024-03-30T02:36:09.741Z,995.47
2024-03-30T02:37:09.754Z,995.46
2024-03-30T02:38:09.780Z,995.47
2024-03-30T02:39:09.788Z,995.48
2024-03-30T02:40:09.797Z,995.46
2024-03-30T02:41:09.807Z,995.52
2024-03-30T02:42:09.826Z,995.50
2024-03-30T02:43:09.849Z,995.55
2024-03-30T02:44:09.853Z,995.58
2024-03-30T02:45:09.867Z,995.55
2024-03-30T02:46:09.882Z,995.57
2024-03-30T02:47:09.910Z,995.55
2024-03-30T02:48:09.910Z,995.50
2024-03-30T02:49:09.933Z,995.46
2024-03-30T02:50:09.941Z,995.49
2024-03-30T02:51:09.958Z,995.47
2024-03-30T02:52:09.968Z,995.50
2024-03-30T02:53:09.984Z,995.48
2024-03-30T02:54:10.002Z,995.46
2024-03-30T02:55:10.023Z,995.45
2024-03-30T02:56:10.028Z,995.44
2024-03-30T02:57:10.067Z,995.44
2024-03-30T02:58:10.054Z,995.46
2024-03-30T02:59:10.092Z,995.43
2024-03-30T03:00:10.094Z,995.43
2024-03-30T03:01:10.111Z,995.44
2024-03-30T03:02:10.111Z,995.46
2024-03-30T03:03:10.125Z,995.48
2024-03-30T03:04:10.144Z,995.47
2024-03-30T03:05:10.161Z,995.45
2024-03-30T03:06:10.173Z,995.46
2024-03-30T03:07:10.183Z,995.50
2024-03-30T03:08:10.198Z,995.55
2024-03-30T03:09:10.210Z,995.54
2024-03-30T03:10:10.223Z,995.51
2024-03-30T03:11:10.265Z,995.50
2024-03-30T03:12:10.261Z,995.51
2024-03-30T03:13:10.280Z,995.51
2024-03-30T03:14:10.285Z,995.51
2024-03-30T03:15:10.310Z,995.55
2024-03-30T03:16:10.350Z,995.54
2024-03-30T03:17:10.333Z,995.62
2024-03-30T03:18:10.339Z,995.62
2024-03-30T03:19:10.369Z,995.60
2024-03-30T03:20:10.381Z,995.62
2024-03-30T03:21:10.384Z,995.62
2024-03-30T03:22:10.401Z,995.57
2024-03-30T03:23:10.422Z,995.58
2024-03-30T03:24:10.426Z,995.53
2024-03-30T03:25:10.439Z,995.53
2024-03-30T03:26:10.464Z,995.50
2024-03-30T03:27:10.468Z,995.46
2024-03-30T03:28:10.487Z,995.51
2024-03-30T03:29:10.497Z,995.45
2024-03-30T03:30:10.509Z,995.44
2024-03-30T03:31:10.527Z,995.44
2024-03-30T03:32:10.535Z,995.40
2024-03-30T03:33:10.570Z,995.36
2024-03-30T03:34:10.575Z,995.36
2024-03-30T03:35:10.604Z,995.37
2024-03-30T03:36:10.625Z,995.38
2024-03-30T03:37:10.610Z,995.40
2024-03-30T03:38:10.622Z,995.40
2024-03-30T03:39:10.687Z,995.44
2024-03-30T03:40:10.651Z,995.47
2024-03-30T03:41:10.680Z,995.47
2024-03-30T03:42:10.683Z,995.46
2024-03-30T03:43:10.696Z,995.43
2024-03-30T03:44:10.711Z,995.44
2024-03-30T03:45:10.724Z,995.39
2024-03-30T03:46:10.741Z,995.39
2024-03-30T03:47:10.751Z,995.37
2024-03-30T03:48:10.770Z,995.33
2024-03-30T03:49:10.795Z,995.35
2024-03-30T03:50:10.797Z,995.34
2024-03-30T03:51:10.810Z,995.31
2024-03-30T03:52:10.824Z,995.31
2024-03-30T03:53:10.837Z,995.33
2024-03-30T03:54:10.853Z,995.33
2024-03-30T03:55:10.870Z,995.26
2024-03-30T03:56:10.879Z,995.25
2024-03-30T03:57:10.900Z,995.24
2024-03-30T03:58:10.912Z,995.23
2024-03-30T03:59:10.923Z,995.29
2024-03-30T04:00:10.945Z,995.25
2024-03-30T04:01:10.950Z,995.23
2024-03-30T04:02:10.966Z,995.28
2024-03-30T04:03:10.979Z,995.30
2024-03-30T04:04:11.002Z,995.36
2024-03-30T04:05:11.007Z,995.27
2024-03-30T04:06:11.018Z,995.34
2024-03-30T04:07:11.037Z,995.41
2024-03-30T04:08:11.050Z,995.39
2024-03-30T04:09:11.065Z,995.42
2024-03-30T04:10:11.080Z,995.44
2024-03-30T04:11:11.097Z,995.40
2024-03-30T04:12:11.114Z,995.40
2024-03-30T04:13:11.121Z,995.39
2024-03-30T04:14:11.135Z,995.34
2024-03-30T04:15:11.153Z,995.40
2024-03-30T04:16:11.164Z,995.41
2024-03-30T04:17:11.194Z,995.42
2024-03-30T04:18:11.195Z,995.46
2024-03-30T04:19:11.208Z,995.49
2024-03-30T04:20:11.225Z,995.47
2024-03-30T04:21:11.236Z,995.49
2024-03-30T04:22:11.249Z,995.49
2024-03-30T04:23:11.272Z,995.47
2024-03-30T04:24:11.283Z,995.48
2024-03-30T04:25:11.298Z,995.44
2024-03-30T04:26:11.339Z,995.46
2024-03-30T04:27:11.319Z,995.40
2024-03-30T04:28:11.337Z,995.41
2024-03-30T04:29:11.351Z,995.42
2024-03-30T04:30:11.364Z,995.45
2024-03-30T04:31:11.377Z,995.41
2024-03-30T04:32:11.393Z,995.43
2024-03-30T04:33:11.405Z,995.36
2024-03-30T04:34:11.422Z,995.44
2024-03-30T04:35:11.432Z,995.43
2024-03-30T04:36:11.454Z,995.48
2024-03-30T04:37:11.462Z,995.47
2024-03-30T04:38:11.479Z,995.51
2024-03-30T04:39:11.507Z,995.46
2024-03-30T04:40:11.507Z,995.43
2024-03-30T04:41:11.518Z,995.42
2024-03-30T04:42:11.530Z,995.40
2024-03-30T04:43:11.552Z,995.41
2024-03-30T04:44:11.564Z,995.54
2024-03-30T04:45:11.575Z,995.59
2024-03-30T04:46:11.593Z,995.64
2024-03-30T04:47:11.607Z,995.65
2024-03-30T04:48:11.624Z,995.62
2024-03-30T04:49:12.661Z,995.61
2024-03-30T04:50:11.650Z,995.60
2024-03-30T04:51:11.660Z,995.64
2024-03-30T04:52:11.676Z,995.61
2024-03-30T04:53:11.690Z,995.58
2024-03-30T04:54:11.719Z,995.57
2024-03-30T04:55:11.720Z,995.55
2024-03-30T04:56:11.734Z,995.53
2024-03-30T04:57:11.752Z,995.53
2024-03-30T04:58:11.766Z,995.56
2024-03-30T04:59:11.794Z,995.53
2024-03-30T05:00:11.791Z,995.53
2024-03-30T05:01:11.809Z,995.53
2024-03-30T05:02:11.819Z,995.52
2024-03-30T05:03:11.844Z,995.49
2024-03-30T05:04:11.853Z,995.50
2024-03-30T05:05:11.863Z,995.49
2024-03-30T05:06:11.893Z,995.48
2024-03-30T05:07:11.906Z,995.47
2024-03-30T05:08:11.906Z,995.44
2024-03-30T05:09:11.928Z,995.47
2024-03-30T05:10:11.935Z,995.43
2024-03-30T05:11:11.952Z,995.34
2024-03-30T05:12:11.961Z,995.40
2024-03-30T05:13:11.975Z,995.32
2024-03-30T05:14:11.993Z,995.30
2024-03-30T05:15:12.006Z,995.25
2024-03-30T05:16:12.045Z,995.24
2024-03-30T05:17:12.035Z,995.26
2024-03-30T05:18:12.048Z,995.26
2024-03-30T05:19:12.076Z,995.21
2024-03-30T05:20:12.075Z,995.25
2024-03-30T05:21:12.097Z,995.31
2024-03-30T05:22:12.104Z,995.35
2024-03-30T05:23:12.121Z,995.31
2024-03-30T05:24:12.140Z,995.32
2024-03-30T05:25:12.163Z,995.34
2024-03-30T05:26:12.165Z,995.39
2024-03-30T05:27:12.177Z,995.40
2024-03-30T05:28:12.194Z,995.40
2024-03-30T05:29:12.209Z,995.42
2024-03-30T05:30:12.230Z,995.44
2024-03-30T05:31:12.239Z,995.41
2024-03-30T05:32:12.256Z,995.43
2024-03-30T05:33:12.270Z,995.43
2024-03-30T05:34:12.288Z,995.44
2024-03-30T05:35:12.300Z,995.40
2024-03-30T05:36:12.314Z,995.40
2024-03-30T05:37:12.333Z,995.41
2024-03-30T05:38:12.355Z,995.39
2024-03-30T05:39:12.358Z,995.40
2024-03-30T05:40:12.373Z,995.41
2024-03-30T05:41:12.386Z,995.40
2024-03-30T05:42:12.402Z,995.37
2024-03-30T05:43:12.428Z,995.32
2024-03-30T05:44:12.435Z,995.30
2024-03-30T05:45:12.463Z,995.26
2024-03-30T05:46:12.466Z,995.22
2024-03-30T05:47:14.740Z,995.17
2024-03-30T05:48:12.498Z,995.18
2024-03-30T05:49:12.520Z,995.19
2024-03-30T05:50:12.530Z,995.18
2024-03-30T05:51:12.544Z,995.18
2024-03-30T05:52:12.563Z,995.23
2024-03-30T05:53:12.575Z,995.22
2024-03-30T05:54:12.590Z,995.24
2024-03-30T05:55:12.620Z,995.22
2024-03-30T05:56:12.625Z,995.23
2024-03-30T05:57:12.641Z,995.24
2024-03-30T05:58:12.651Z,995.28
2024-03-30T05:59:12.670Z,995.32
2024-03-30T06:00:12.694Z,995.35
2024-03-30T06:01:12.706Z,995.33
2024-03-30T06:02:12.711Z,995.36
2024-03-30T06:03:12.740Z,995.31
2024-03-30T06:04:12.745Z,995.29
2024-03-30T06:05:12.759Z,995.30
2024-03-30T06:06:12.775Z,995.26
2024-03-30T06:07:12.793Z,995.22
2024-03-30T06:08:12.810Z,995.23
2024-03-30T06:09:12.822Z,995.20
2024-03-30T06:10:12.838Z,995.21
2024-03-30T06:11:12.855Z,995.28
2024-03-30T06:12:12.868Z,995.23
2024-03-30T06:13:12.895Z,995.26
2024-03-30T06:14:12.900Z,995.27
2024-03-30T06:15:12.918Z,995.29
2024-03-30T06:16:12.932Z,995.28
2024-03-30T06:17:12.948Z,995.31
2024-03-30T06:18:12.971Z,995.36
2024-03-30T06:19:12.980Z,995.29
2024-03-30T06:20:13.011Z,995.28
2024-03-30T06:21:13.037Z,995.25
2024-03-30T06:22:13.031Z,995.23
2024-03-30T06:23:13.045Z,995.21
2024-03-30T06:24:13.065Z,995.22
2024-03-30T06:25:13.074Z,995.25
2024-03-30T06:26:13.090Z,995.25
2024-03-30T06:27:13.110Z,995.31
2024-03-30T06:28:13.128Z,995.36
2024-03-30T06:29:13.138Z,995.34
2024-03-30T06:30:13.172Z,995.29
2024-03-30T06:31:13.171Z,995.27
2024-03-30T06:32:13.191Z,995.28
2024-03-30T06:33:13.207Z,995.29
2024-03-30T06:34:13.218Z,995.33
2024-03-30T06:35:13.240Z,995.36
2024-03-30T06:36:13.252Z,995.37
2024-03-30T06:37:13.269Z,995.37
2024-03-30T06:38:13.286Z,995.36
2024-03-30T06:39:13.305Z,995.36
2024-03-30T06:40:13.324Z,995.37
2024-03-30T06:41:13.335Z,995.40
2024-03-30T06:42:13.354Z,995.43
2024-03-30T06:43:13.369Z,995.42
2024-03-30T06:44:13.386Z,995.43
2024-03-30T06:45:13.403Z,995.46
2024-03-30T06:46:13.454Z,995.52
2024-03-30T06:47:13.435Z,995.49
2024-03-30T06:48:13.464Z,995.49
2024-03-30T06:49:13.472Z,995.44
2024-03-30T06:50:13.487Z,995.38
2024-03-30T06:51:13.515Z,995.44
2024-03-30T06:52:13.532Z,995.44
2024-03-30T06:53:13.535Z,995.49
2024-03-30T06:54:13.561Z,995.48
2024-03-30T06:55:13.584Z,995.53
2024-03-30T06:56:13.601Z,995.50
2024-03-30T06:57:13.608Z,995.50
2024-03-30T06:58:13.622Z,995.56
2024-03-30T06:59:13.647Z,995.53
2024-03-30T07:00:13.696Z,995.54
2024-03-30T07:01:13.692Z,995.49
2024-03-30T07:02:13.703Z,995.44
2024-03-30T07:03:13.711Z,995.35
2024-03-30T07:04:13.734Z,995.32
2024-03-30T07:05:13.748Z,995.30
2024-03-30T07:06:13.760Z,995.35
2024-03-30T07:07:15.836Z,995.31
2024-03-30T07:08:13.799Z,995.31
2024-03-30T07:09:13.813Z,995.33
2024-03-30T07:10:13.830Z,995.39
2024-03-30T07:11:13.849Z,995.35
2024-03-30T07:12:13.869Z,995.35
2024-03-30T07:13:13.881Z,995.35
2024-03-30T07:14:13.900Z,995.40
2024-03-30T07:15:13.919Z,995.42
2024-03-30T07:16:13.967Z,995.42
2024-03-30T07:17:15.078Z,995.41
2024-03-30T07:18:13.970Z,995.41
2024-03-30T07:19:13.989Z,995.45
2024-03-30T07:20:14.009Z,995.40
2024-03-30T07:21:14.024Z,995.43
2024-03-30T07:22:14.043Z,995.43
2024-03-30T07:23:14.061Z,995.41
2024-03-30T07:24:14.081Z,995.44
2024-03-30T07:25:14.096Z,995.37
2024-03-30T07:26:14.116Z,995.39
2024-03-30T07:27:14.133Z,995.40
2024-03-30T07:28:14.157Z,995.40
2024-03-30T07:29:14.169Z,995.39
2024-03-30T07:30:14.191Z,995.38
2024-03-30T07:31:14.209Z,995.36
2024-03-30T07:32:14.228Z,995.33
2024-03-30T07:33:14.242Z,995.33
2024-03-30T07:34:14.275Z,995.30
2024-03-30T07:35:14.286Z,995.29
2024-03-30T07:36:14.312Z,995.24
2024-03-30T07:37:14.337Z,995.24
2024-03-30T07:38:14.344Z,995.17
2024-03-30T07:39:14.361Z,995.16
2024-03-30T07:40:14.401Z,995.17
2024-03-30T07:41:14.403Z,995.19
2024-03-30T07:42:14.423Z,995.25
2024-03-30T07:43:14.434Z,995.31
2024-03-30T07:44:14.457Z,995.35
2024-03-30T07:45:14.477Z,995.38
2024-03-30T07:46:14.506Z,995.36
2024-03-30T07:47:14.529Z,995.39
2024-03-30T07:48:14.545Z,995.31
2024-03-30T07:49:14.560Z,995.30
2024-03-30T07:50:14.585Z,995.27
2024-03-30T07:51:14.600Z,995.28
2024-03-30T07:52:14.628Z,995.24
2024-03-30T07:53:14.635Z,995.23
2024-03-30T07:54:14.653Z,995.28
2024-03-30T07:55:14.677Z,995.27
2024-03-30T07:56:14.695Z,995.29
2024-03-30T07:57:14.714Z,995.32
2024-03-30T07:58:14.738Z,995.30
2024-03-30T07:59:14.756Z,995.37
2024-03-30T08:00:14.783Z,995.36
2024-03-30T08:01:14.806Z,995.39
2024-03-30T08:02:14.830Z,995.42
2024-03-30T08:03:14.840Z,995.40
2024-03-30T08:04:14.860Z,995.40
2024-03-30T08:05:14.876Z,995.38
2024-03-30T08:06:14.896Z,995.38
2024-03-30T08:07:14.919Z,995.37
2024-03-30T08:08:14.938Z,995.37
2024-03-30T08:09:14.961Z,995.34
2024-03-30T08:10:14.984Z,995.31
2024-03-30T08:11:15.005Z,995.29
2024-03-30T08:12:15.029Z,995.24
2024-03-30T08:13:15.045Z,995.26
2024-03-30T08:14:15.061Z,995.24
2024-03-30T08:15:15.084Z,995.24
2024-03-30T08:16:15.101Z,995.20
2024-03-30T08:17:15.127Z,995.18
2024-03-30T08:18:15.148Z,995.23
2024-03-30T08:19:15.160Z,995.21
2024-03-30T08:20:15.199Z,995.19
2024-03-30T08:21:15.204Z,995.19
2024-03-30T08:22:15.224Z,995.21
2024-03-30T08:23:15.244Z,995.20
2024-03-30T08:24:15.267Z,995.21
2024-03-30T08:25:15.289Z,995.20
2024-03-30T08:26:15.309Z,995.20
2024-03-30T08:27:15.326Z,995.21
2024-03-30T08:28:15.348Z,995.21
2024-03-30T08:29:15.366Z,995.19
2024-03-30T08:30:15.385Z,995.23
2024-03-30T08:31:15.412Z,995.23
2024-03-30T08:32:15.433Z,995.26
2024-03-30T08:33:15.473Z,995.22
2024-03-30T08:34:17.136Z,995.24
2024-03-30T08:35:15.496Z,995.24
2024-03-30T08:36:15.515Z,995.19
2024-03-30T08:37:15.533Z,995.17
2024-03-30T08:38:15.553Z,995.18
2024-03-30T08:39:15.582Z,995.11
2024-03-30T08:40:15.600Z,995.16
2024-03-30T08:41:15.620Z,995.19
2024-03-30T08:42:18.173Z,995.10
2024-03-30T08:43:15.661Z,995.11
2024-03-30T08:44:15.685Z,995.08
2024-03-30T08:45:15.707Z,995.11
2024-03-30T08:46:15.723Z,995.08
2024-03-30T08:47:15.772Z,995.10
2024-03-30T08:48:15.764Z,995.11
2024-03-30T08:49:15.806Z,995.09
2024-03-30T08:50:15.818Z,995.09
2024-03-30T08:51:15.836Z,995.06
2024-03-30T08:52:15.854Z,995.04
2024-03-30T08:53:15.873Z,995.07
2024-03-30T08:54:15.894Z,995.11
2024-03-30T08:55:15.918Z,995.13
2024-03-30T08:56:15.934Z,995.09
2024-03-30T08:57:15.956Z,995.16
2024-03-30T08:58:15.980Z,995.14
2024-03-30T08:59:15.998Z,995.17
2024-03-30T09:00:16.027Z,995.15
2024-03-30T09:01:16.041Z,995.16
2024-03-30T09:02:16.065Z,995.12
2024-03-30T09:03:16.084Z,995.15
2024-03-30T09:04:16.107Z,995.13
2024-03-30T09:05:16.133Z,995.16
2024-03-30T09:06:16.160Z,995.11
2024-03-30T09:07:16.169Z,995.17
2024-03-30T09:08:16.210Z,995.15
2024-03-30T09:09:16.234Z,995.18
2024-03-30T09:10:16.238Z,995.16
2024-03-30T09:11:16.259Z,995.17
2024-03-30T09:12:16.277Z,995.17
2024-03-30T09:13:16.302Z,995.22
2024-03-30T09:14:16.323Z,995.18
2024-03-30T09:15:16.343Z,995.21
2024-03-30T09:16:16.371Z,995.17
2024-03-30T09:17:16.389Z,995.19
2024-03-30T09:18:16.421Z,995.17
2024-03-30T09:19:16.433Z,995.19
2024-03-30T09:20:16.473Z,995.20
2024-03-30T09:21:16.526Z,995.15
2024-03-30T09:22:16.505Z,995.18
2024-03-30T09:23:16.521Z,995.12
2024-03-30T09:24:16.546Z,995.11
2024-03-30T09:25:16.576Z,995.08
2024-03-30T09:26:16.601Z,995.06
2024-03-30T09:27:16.614Z,995.11
2024-03-30T09:28:16.633Z,995.08
2024-03-30T09:29:16.659Z,995.05
2024-03-30T09:30:16.693Z,995.06
2024-03-30T09:31:16.699Z,995.06
2024-03-30T09:32:16.737Z,995.05
2024-03-30T09:33:16.748Z,995.07
2024-03-30T09:34:28.962Z,995.05
2024-03-30T09:35:16.788Z,995.04
2024-03-30T09:36:16.820Z,995.05
2024-03-30T09:37:16.856Z,995.07
2024-03-30T09:38:16.864Z,995.05
2024-03-30T09:39:16.885Z,995.08
2024-03-30T09:40:16.926Z,995.08
2024-03-30T09:41:16.935Z,995.08
2024-03-30T09:42:16.949Z,995.06
2024-03-30T09:43:16.976Z,995.13
2024-03-30T09:44:16.996Z,995.07
2024-03-30T09:45:17.033Z,995.08
2024-03-30T09:46:17.051Z,995.04
2024-03-30T09:47:17.074Z,995.00
2024-03-30T09:48:17.099Z,994.99
2024-03-30T09:49:17.127Z,995.00
2024-03-30T09:50:17.134Z,995.00
2024-03-30T09:51:17.157Z,994.97
2024-03-30T09:52:17.178Z,994.99
2024-03-30T09:53:17.205Z,994.99
2024-03-30T09:54:17.233Z,995.00
2024-03-30T09:55:17.254Z,995.03
2024-03-30T09:56:17.277Z,995.03
2024-03-30T09:57:17.309Z,995.02
2024-03-30T09:58:17.324Z,995.00
2024-03-30T09:59:17.356Z,994.97
2024-03-30T10:00:17.379Z,994.94
2024-03-30T10:01:17.402Z,994.95
2024-03-30T10:02:17.435Z,994.93
2024-03-30T10:03:17.451Z,994.92
2024-03-30T10:04:17.468Z,994.89
2024-03-30T10:05:32.484Z,994.88
2024-03-30T10:06:17.514Z,994.85
2024-03-30T10:07:17.539Z,994.86
2024-03-30T10:08:17.564Z,994.82
2024-03-30T10:09:17.609Z,994.81
2024-03-30T10:10:17.611Z,994.83
2024-03-30T10:11:17.638Z,994.83
2024-03-30T10:12:17.660Z,994.81
2024-03-30T10:13:17.687Z,994.82
2024-03-30T10:14:17.709Z,994.79
2024-03-30T10:15:17.738Z,994.75
2024-03-30T10:16:17.762Z,994.78
2024-03-30T10:17:17.785Z,994.76
2024-03-30T10:18:17.808Z,994.76
2024-03-30T10:19:17.832Z,994.74
2024-03-30T10:20:17.860Z,994.71
2024-03-30T10:21:17.881Z,994.73
2024-03-30T10:22:17.906Z,994.73
2024-03-30T10:23:17.930Z,994.73
2024-03-30T10:24:17.957Z,994.70
2024-03-30T10:25:17.981Z,994.73
2024-03-30T10:26:18.005Z,994.68
2024-03-30T10:27:18.031Z,994.71
2024-03-30T10:28:18.058Z,994.63
2024-03-30T10:29:18.079Z,994.69
2024-03-30T10:30:18.116Z,994.65
2024-03-30T10:31:18.131Z,994.66
2024-03-30T10:32:18.154Z,994.63
2024-03-30T10:33:18.179Z,994.63
2024-03-30T10:34:18.205Z,994.64
2024-03-30T10:35:18.232Z,994.65
2024-03-30T10:36:18.252Z,994.62
2024-03-30T10:37:18.279Z,994.64
2024-03-30T10:38:18.303Z,994.59
2024-03-30T10:39:18.330Z,994.58
2024-03-30T10:40:18.354Z,994.57
2024-03-30T10:41:18.378Z,994.60
2024-03-30T10:42:18.412Z,994.57
2024-03-30T10:43:18.433Z,994.53
2024-03-30T10:44:18.461Z,994.54
2024-03-30T10:45:18.491Z,994.54
2024-03-30T10:46:18.506Z,994.55
2024-03-30T10:47:18.532Z,994.58
2024-03-30T10:48:18.563Z,994.54
2024-03-30T10:49:18.586Z,994.57
2024-03-30T10:50:20.061Z,994.58
2024-03-30T10:51:18.646Z,994.60
2024-03-30T10:52:18.660Z,994.62
2024-03-30T10:53:18.686Z,994.56
2024-03-30T10:54:18.712Z,994.60
2024-03-30T10:55:18.740Z,994.57
2024-03-30T10:56:21.723Z,994.57
2024-03-30T10:57:18.789Z,994.58
2024-03-30T10:58:18.818Z,994.60
2024-03-30T10:59:18.870Z,994.57
2024-03-30T11:00:18.874Z,994.53
2024-03-30T11:01:18.898Z,994.57
2024-03-30T11:02:19.603Z,994.53
2024-03-30T11:03:18.947Z,994.56
2024-03-30T11:04:18.975Z,994.53
2024-03-30T11:05:19.041Z,994.53
2024-03-30T11:06:19.037Z,994.50
2024-03-30T11:07:19.060Z,994.51
2024-03-30T11:08:19.079Z,994.55
2024-03-30T11:09:19.107Z,994.54
2024-03-30T11:10:19.135Z,994.54
2024-03-30T11:11:19.158Z,994.51
2024-03-30T11:12:19.184Z,994.53
2024-03-30T11:13:19.211Z,994.46
2024-03-30T11:14:19.235Z,994.46
2024-03-30T11:15:19.263Z,994.48
2024-03-30T11:16:19.293Z,994.50
2024-03-30T11:17:19.317Z,994.48
2024-03-30T11:18:22.017Z,994.44
2024-03-30T11:19:19.375Z,994.48
2024-03-30T11:20:19.401Z,994.43
2024-03-30T11:21:19.437Z,994.42
2024-03-30T11:22:19.466Z,994.42
2024-03-30T11:23:19.478Z,994.39
2024-03-30T11:24:21.348Z,994.37
2024-03-30T11:25:19.532Z,994.41
2024-03-30T11:26:19.560Z,994.38
2024-03-30T11:27:19.596Z,994.35
2024-03-30T11:28:19.610Z,994.34
2024-03-30T11:29:19.640Z,994.34
2024-03-30T11:30:19.666Z,994.37
2024-03-30T11:31:19.750Z,994.31
2024-03-30T11:32:19.730Z,994.33
2024-03-30T11:33:19.747Z,994.38
2024-03-30T11:34:19.774Z,994.35
2024-03-30T11:35:19.802Z,994.33
2024-03-30T11:36:19.823Z,994.36
2024-03-30T11:37:19.879Z,994.34
2024-03-30T11:38:29.759Z,994.33
2024-03-30T11:39:19.916Z,994.33
2024-03-30T11:40:21.767Z,994.29
2024-03-30T11:41:19.956Z,994.30
2024-03-30T11:42:19.989Z,994.29
2024-03-30T11:43:20.016Z,994.31
2024-03-30T11:44:20.039Z,994.33
2024-03-30T11:45:20.072Z,994.27
2024-03-30T11:46:20.089Z,994.27
2024-03-30T11:47:20.119Z,994.26
2024-03-30T11:48:20.146Z,994.27
2024-03-30T11:49:20.176Z,994.30
2024-03-30T11:50:20.197Z,994.29
2024-03-30T11:51:20.226Z,994.24
2024-03-30T11:52:20.259Z,994.21
2024-03-30T11:53:20.285Z,994.21
2024-03-30T11:54:20.319Z,994.22
2024-03-30T11:55:20.344Z,994.19
2024-03-30T11:56:20.359Z,994.16
2024-03-30T11:57:24.496Z,994.14
2024-03-30T11:58:20.414Z,994.13
2024-03-30T11:59:20.440Z,994.10
2024-03-30T12:00:20.469Z,994.12
2024-03-30T12:01:20.496Z,994.10
2024-03-30T12:02:20.519Z,994.16
2024-03-30T12:03:20.568Z,994.12
2024-03-30T12:04:20.583Z,994.12
2024-03-30T12:05:20.597Z,994.12
2024-03-30T12:06:20.644Z,994.09
2024-03-30T12:07:20.652Z,994.07
2024-03-30T12:08:20.680Z,994.09
2024-03-30T12:09:20.708Z,994.10
2024-03-30T12:10:20.750Z,994.09
2024-03-30T12:11:20.764Z,994.05
2024-03-30T12:12:20.790Z,994.07
2024-03-30T12:13:20.837Z,994.04
2024-03-30T12:14:20.841Z,994.07
2024-03-30T12:15:20.868Z,994.03
2024-03-30T12:16:20.897Z,994.04
2024-03-30T12:17:20.923Z,994.07
2024-03-30T12:18:20.949Z,993.99
2024-03-30T12:19:20.977Z,994.02
2024-03-30T12:20:21.004Z,993.99
2024-03-30T12:21:21.038Z,993.96
2024-03-30T12:22:21.058Z,993.94
2024-03-30T12:23:21.099Z,993.97
2024-03-30T12:24:21.115Z,993.96
2024-03-30T12:25:21.142Z,993.96
2024-03-30T12:26:21.172Z,993.92
2024-03-30T12:27:21.204Z,993.89
2024-03-30T12:28:21.225Z,993.88